ETIC

Grafenwohr Army Air Field Airport

Germany
METAR ETIC 231056Z AUTO 25009G17KT 9999 SCT160 09/04 A3020 RMK AO2 SLP239 T00920040 $
Observed Flight Rules
Oct-23 @ 10:56 UTC (52 minutes ago) Visual Flight Rules
Wind Visibility Clouds
250° at 9 knots
 Gusting to 17 knots
10,000+ meters
  • Scattered at 16,000' AGL
Temperatures Readings
Current 9°C / 48°F
Dewpoint 4°C / 39°F
Humidity 71%
Altimeter 30.2" Hg
Pressure 1023.9 hPa
Elevation 415
METAR ETIC 231056Z AUTO 25009G17KT 9999 SCT160 09/04 A3020 RMK AO2 SLP239 T00920040 $
Observed Flight Rules
Oct-23 @ 10:56 UTC
(52 minutes ago)
VFR
Wind Visibility
250° at 9 knots
 Gusting to 17 knots
10,000+ meters
Clouds
  • Scattered at 16,000' AGL
Temperature Dewpoint
9°C / 48°F 4°C / 39°F
Humidity Altimeter Pressure
71% 30.2" Hg 1023.9 hPa